sensor_id;sensor_type;location;lat;lon;timestamp;P1;durP1;ratioP1;P2;durP2;ratioP2
59830;SDS011;45711;50.108;13.712;2023-06-10T00:00:02;11.45;;;7.13;;
59830;SDS011;45711;50.108;13.712;2023-06-10T00:02:31;12.25;;;6.70;;
59830;SDS011;45711;50.108;13.712;2023-06-10T00:05:02;10.85;;;6.80;;
59830;SDS011;45711;50.108;13.712;2023-06-10T00:07:29;10.77;;;7.13;;
59830;SDS011;45711;50.108;13.712;2023-06-10T00:09:58;12.30;;;6.95;;
59830;SDS011;45711;50.108;13.712;2023-06-10T00:12:24;10.93;;;8.02;;
59830;SDS011;45711;50.108;13.712;2023-06-10T00:14:53;11.95;;;6.90;;
59830;SDS011;45711;50.108;13.712;2023-06-10T00:17:22;11.65;;;7.57;;
59830;SDS011;45711;50.108;13.712;2023-06-10T00:19:48;9.25;;;7.07;;
59830;SDS011;45711;50.108;13.712;2023-06-10T00:22:15;13.02;;;7.63;;
59830;SDS011;45711;50.108;13.712;2023-06-10T00:24:45;11.48;;;7.13;;
59830;SDS011;45711;50.108;13.712;2023-06-10T00:27:10;9.88;;;6.20;;
59830;SDS011;45711;50.108;13.712;2023-06-10T00:29:38;11.00;;;7.03;;
59830;SDS011;45711;50.108;13.712;2023-06-10T00:32:07;9.20;;;7.38;;
59830;SDS011;45711;50.108;13.712;2023-06-10T00:34:33;9.88;;;6.90;;
59830;SDS011;45711;50.108;13.712;2023-06-10T00:36:58;11.05;;;8.15;;
59830;SDS011;45711;50.108;13.712;2023-06-10T00:39:24;10.25;;;6.80;;
59830;SDS011;45711;50.108;13.712;2023-06-10T00:41:51;12.25;;;6.35;;
59830;SDS011;45711;50.108;13.712;2023-06-10T00:44:20;12.48;;;7.00;;
59830;SDS011;45711;50.108;13.712;2023-06-10T00:46:46;9.52;;;6.78;;
59830;SDS011;45711;50.108;13.712;2023-06-10T00:49:12;8.75;;;6.80;;
59830;SDS011;45711;50.108;13.712;2023-06-10T00:51:39;9.00;;;6.07;;
59830;SDS011;45711;50.108;13.712;2023-06-10T00:54:07;9.65;;;6.82;;
59830;SDS011;45711;50.108;13.712;2023-06-10T00:56:35;8.50;;;6.72;;
59830;SDS011;45711;50.108;13.712;2023-06-10T00:59:03;9.13;;;7.00;;
59830;SDS011;45711;50.108;13.712;2023-06-10T01:01:29;15.77;;;7.10;;
59830;SDS011;45711;50.108;13.712;2023-06-10T01:03:57;8.07;;;6.75;;
59830;SDS011;45711;50.108;13.712;2023-06-10T01:06:25;13.57;;;6.38;;
59830;SDS011;45711;50.108;13.712;2023-06-10T01:09:00;9.75;;;6.40;;
59830;SDS011;45711;50.108;13.712;2023-06-10T01:11:40;11.18;;;6.68;;
59830;SDS011;45711;50.108;13.712;2023-06-10T01:14:13;9.02;;;6.10;;
59830;SDS011;45711;50.108;13.712;2023-06-10T01:16:43;8.55;;;6.30;;
59830;SDS011;45711;50.108;13.712;2023-06-10T01:19:10;9.85;;;6.13;;
59830;SDS011;45711;50.108;13.712;2023-06-10T01:21:39;13.00;;;6.30;;
59830;SDS011;45711;50.108;13.712;2023-06-10T01:24:07;13.23;;;6.60;;
59830;SDS011;45711;50.108;13.712;2023-06-10T01:26:36;12.40;;;6.50;;
59830;SDS011;45711;50.108;13.712;2023-06-10T01:29:11;11.40;;;6.45;;
59830;SDS011;45711;50.108;13.712;2023-06-10T01:31:44;11.68;;;6.30;;
59830;SDS011;45711;50.108;13.712;2023-06-10T01:34:22;8.05;;;6.40;;
59830;SDS011;45711;50.108;13.712;2023-06-10T01:36:51;9.50;;;7.30;;
59830;SDS011;45711;50.108;13.712;2023-06-10T01:39:20;9.50;;;7.07;;
59830;SDS011;45711;50.108;13.712;2023-06-10T01:41:52;12.43;;;6.78;;
59830;SDS011;45711;50.108;13.712;2023-06-10T01:44:19;10.82;;;7.03;;
59830;SDS011;45711;50.108;13.712;2023-06-10T01:46:45;11.15;;;7.32;;
59830;SDS011;45711;50.108;13.712;2023-06-10T01:49:11;10.18;;;6.78;;
59830;SDS011;45711;50.108;13.712;2023-06-10T01:51:39;11.65;;;6.88;;
59830;SDS011;45711;50.108;13.712;2023-06-10T01:54:07;10.20;;;6.97;;
59830;SDS011;45711;50.108;13.712;2023-06-10T01:56:35;10.05;;;7.38;;
59830;SDS011;45711;50.108;13.712;2023-06-10T01:59:01;13.68;;;6.90;;
59830;SDS011;45711;50.108;13.712;2023-06-10T02:01:28;10.93;;;7.38;;
59830;SDS011;45711;50.108;13.712;2023-06-10T02:03:54;9.82;;;7.47;;
59830;SDS011;45711;50.108;13.712;2023-06-10T02:06:20;9.27;;;7.18;;
59830;SDS011;45711;50.108;13.712;2023-06-10T02:08:48;10.98;;;6.85;;
59830;SDS011;45711;50.108;13.712;2023-06-10T02:11:17;13.90;;;7.65;;
59830;SDS011;45711;50.108;13.712;2023-06-10T02:13:43;11.82;;;7.28;;
59830;SDS011;45711;50.108;13.712;2023-06-10T02:16:11;10.43;;;7.15;;
59830;SDS011;45711;50.108;13.712;2023-06-10T02:18:37;10.50;;;7.78;;
59830;SDS011;45711;50.108;13.712;2023-06-10T02:21:05;10.38;;;6.93;;
59830;SDS011;45711;50.108;13.712;2023-06-10T02:23:31;13.07;;;7.53;;
59830;SDS011;45711;50.108;13.712;2023-06-10T02:26:02;10.23;;;7.35;;
59830;SDS011;45711;50.108;13.712;2023-06-10T02:28:29;9.82;;;6.93;;
59830;SDS011;45711;50.108;13.712;2023-06-10T02:30:58;11.57;;;7.25;;
59830;SDS011;45711;50.108;13.712;2023-06-10T02:33:26;9.30;;;6.97;;
59830;SDS011;45711;50.108;13.712;2023-06-10T02:35:52;9.35;;;6.95;;
59830;SDS011;45711;50.108;13.712;2023-06-10T02:38:18;8.85;;;6.72;;
59830;SDS011;45711;50.108;13.712;2023-06-10T02:40:50;9.98;;;6.85;;
59830;SDS011;45711;50.108;13.712;2023-06-10T02:43:16;9.60;;;7.53;;
59830;SDS011;45711;50.108;13.712;2023-06-10T02:45:44;9.57;;;6.45;;
59830;SDS011;45711;50.108;13.712;2023-06-10T02:48:14;13.65;;;6.70;;
59830;SDS011;45711;50.108;13.712;2023-06-10T02:50:43;9.68;;;6.30;;
59830;SDS011;45711;50.108;13.712;2023-06-10T02:53:08;13.10;;;6.10;;
59830;SDS011;45711;50.108;13.712;2023-06-10T02:55:48;12.45;;;6.68;;
59830;SDS011;45711;50.108;13.712;2023-06-10T02:58:17;11.63;;;6.00;;
59830;SDS011;45711;50.108;13.712;2023-06-10T03:00:44;11.95;;;6.60;;
59830;SDS011;45711;50.108;13.712;2023-06-10T03:03:12;11.27;;;6.50;;
59830;SDS011;45711;50.108;13.712;2023-06-10T03:05:43;10.43;;;6.65;;
59830;SDS011;45711;50.108;13.712;2023-06-10T03:08:11;10.77;;;7.78;;
59830;SDS011;45711;50.108;13.712;2023-06-10T03:10:39;9.38;;;7.60;;
59830;SDS011;45711;50.108;13.712;2023-06-10T03:13:08;12.43;;;7.70;;
59830;SDS011;45711;50.108;13.712;2023-06-10T03:15:35;13.73;;;7.95;;
59830;SDS011;45711;50.108;13.712;2023-06-10T03:18:05;11.50;;;8.13;;
59830;SDS011;45711;50.108;13.712;2023-06-10T03:20:33;10.57;;;7.07;;
59830;SDS011;45711;50.108;13.712;2023-06-10T03:23:02;10.55;;;7.32;;
59830;SDS011;45711;50.108;13.712;2023-06-10T03:25:38;16.55;;;7.45;;
59830;SDS011;45711;50.108;13.712;2023-06-10T03:28:03;12.32;;;7.40;;
59830;SDS011;45711;50.108;13.712;2023-06-10T03:30:40;14.07;;;6.65;;
59830;SDS011;45711;50.108;13.712;2023-06-10T03:33:16;14.18;;;7.57;;
59830;SDS011;45711;50.108;13.712;2023-06-10T03:35:41;12.07;;;6.97;;
59830;SDS011;45711;50.108;13.712;2023-06-10T03:38:07;9.93;;;7.25;;
59830;SDS011;45711;50.108;13.712;2023-06-10T03:40:37;13.43;;;7.35;;
59830;SDS011;45711;50.108;13.712;2023-06-10T03:43:15;11.55;;;7.15;;
59830;SDS011;45711;50.108;13.712;2023-06-10T03:45:43;10.68;;;7.60;;
59830;SDS011;45711;50.108;13.712;2023-06-10T03:48:10;11.60;;;8.15;;
59830;SDS011;45711;50.108;13.712;2023-06-10T03:50:40;15.15;;;8.50;;
59830;SDS011;45711;50.108;13.712;2023-06-10T03:53:09;14.45;;;8.57;;
59830;SDS011;45711;50.108;13.712;2023-06-10T03:55:35;9.05;;;7.35;;
59830;SDS011;45711;50.108;13.712;2023-06-10T03:58:01;13.45;;;8.45;;
59830;SDS011;45711;50.108;13.712;2023-06-10T04:00:27;14.73;;;8.38;;
59830;SDS011;45711;50.108;13.712;2023-06-10T04:02:53;12.32;;;8.52;;
59830;SDS011;45711;50.108;13.712;2023-06-10T04:05:23;13.13;;;8.90;;
59830;SDS011;45711;50.108;13.712;2023-06-10T04:07:50;17.85;;;9.77;;
59830;SDS011;45711;50.108;13.712;2023-06-10T04:10:16;14.75;;;8.63;;
59830;SDS011;45711;50.108;13.712;2023-06-10T04:12:41;19.45;;;8.38;;
59830;SDS011;45711;50.108;13.712;2023-06-10T04:15:09;11.95;;;7.60;;
59830;SDS011;45711;50.108;13.712;2023-06-10T04:17:35;12.05;;;7.45;;
59830;SDS011;45711;50.108;13.712;2023-06-10T04:20:04;11.48;;;7.90;;
59830;SDS011;45711;50.108;13.712;2023-06-10T04:22:32;14.52;;;7.65;;
59830;SDS011;45711;50.108;13.712;2023-06-10T04:25:00;13.02;;;8.50;;
59830;SDS011;45711;50.108;13.712;2023-06-10T04:27:28;11.82;;;8.43;;
59830;SDS011;45711;50.108;13.712;2023-06-10T04:29:56;12.65;;;8.68;;
59830;SDS011;45711;50.108;13.712;2023-06-10T04:32:21;11.60;;;8.98;;
59830;SDS011;45711;50.108;13.712;2023-06-10T04:34:48;14.35;;;8.82;;
59830;SDS011;45711;50.108;13.712;2023-06-10T04:37:14;15.65;;;9.27;;
59830;SDS011;45711;50.108;13.712;2023-06-10T04:39:43;12.95;;;9.75;;
59830;SDS011;45711;50.108;13.712;2023-06-10T04:42:13;14.32;;;9.20;;
59830;SDS011;45711;50.108;13.712;2023-06-10T04:44:39;14.77;;;9.55;;
59830;SDS011;45711;50.108;13.712;2023-06-10T04:47:08;16.02;;;9.68;;
59830;SDS011;45711;50.108;13.712;2023-06-10T04:49:39;16.90;;;9.05;;
59830;SDS011;45711;50.108;13.712;2023-06-10T04:52:07;13.55;;;9.35;;
59830;SDS011;45711;50.108;13.712;2023-06-10T04:54:35;18.83;;;9.13;;
59830;SDS011;45711;50.108;13.712;2023-06-10T04:57:00;17.60;;;9.38;;
59830;SDS011;45711;50.108;13.712;2023-06-10T04:59:29;12.18;;;9.13;;
59830;SDS011;45711;50.108;13.712;2023-06-10T05:01:57;12.90;;;9.27;;
59830;SDS011;45711;50.108;13.712;2023-06-10T05:04:25;13.45;;;9.82;;
59830;SDS011;45711;50.108;13.712;2023-06-10T05:06:53;15.82;;;10.07;;
59830;SDS011;45711;50.108;13.712;2023-06-10T05:09:20;12.50;;;9.70;;
59830;SDS011;45711;50.108;13.712;2023-06-10T05:11:46;13.82;;;10.27;;
59830;SDS011;45711;50.108;13.712;2023-06-10T05:14:20;14.70;;;9.90;;
59830;SDS011;45711;50.108;13.712;2023-06-10T05:16:57;15.30;;;10.77;;
59830;SDS011;45711;50.108;13.712;2023-06-10T05:19:36;15.02;;;10.82;;
59830;SDS011;45711;50.108;13.712;2023-06-10T05:22:05;15.82;;;10.52;;
59830;SDS011;45711;50.108;13.712;2023-06-10T05:24:37;15.50;;;9.95;;
59830;SDS011;45711;50.108;13.712;2023-06-10T05:27:05;16.73;;;10.95;;
59830;SDS011;45711;50.108;13.712;2023-06-10T05:29:31;16.02;;;10.27;;
59830;SDS011;45711;50.108;13.712;2023-06-10T05:32:07;15.95;;;9.82;;
59830;SDS011;45711;50.108;13.712;2023-06-10T05:34:35;13.57;;;10.35;;
59830;SDS011;45711;50.108;13.712;2023-06-10T05:37:14;14.95;;;10.65;;
59830;SDS011;45711;50.108;13.712;2023-06-10T05:39:43;19.08;;;10.68;;
59830;SDS011;45711;50.108;13.712;2023-06-10T05:42:08;16.35;;;11.32;;
59830;SDS011;45711;50.108;13.712;2023-06-10T05:44:37;14.27;;;10.68;;
59830;SDS011;45711;50.108;13.712;2023-06-10T05:47:39;17.70;;;10.80;;
59830;SDS011;45711;50.108;13.712;2023-06-10T05:50:05;14.63;;;9.82;;
59830;SDS011;45711;50.108;13.712;2023-06-10T05:52:32;14.63;;;10.45;;
59830;SDS011;45711;50.108;13.712;2023-06-10T05:55:05;17.17;;;10.60;;
59830;SDS011;45711;50.108;13.712;2023-06-10T05:57:32;13.43;;;10.65;;
59830;SDS011;45711;50.108;13.712;2023-06-10T05:59:57;16.50;;;10.23;;
59830;SDS011;45711;50.108;13.712;2023-06-10T06:02:25;13.60;;;8.98;;
59830;SDS011;45711;50.108;13.712;2023-06-10T06:04:55;14.90;;;9.77;;
59830;SDS011;45711;50.108;13.712;2023-06-10T06:07:21;13.88;;;9.68;;
59830;SDS011;45711;50.108;13.712;2023-06-10T06:12:28;13.00;;;9.43;;
59830;SDS011;45711;50.108;13.712;2023-06-10T06:14:54;22.55;;;9.43;;
59830;SDS011;45711;50.108;13.712;2023-06-10T06:17:20;14.13;;;9.27;;
59830;SDS011;45711;50.108;13.712;2023-06-10T06:19:45;14.02;;;9.23;;
59830;SDS011;45711;50.108;13.712;2023-06-10T06:22:14;16.33;;;7.90;;
59830;SDS011;45711;50.108;13.712;2023-06-10T06:24:40;11.80;;;8.82;;
59830;SDS011;45711;50.108;13.712;2023-06-10T06:27:06;10.40;;;6.47;;
59830;SDS011;45711;50.108;13.712;2023-06-10T06:29:31;6.70;;;5.47;;
59830;SDS011;45711;50.108;13.712;2023-06-10T06:32:00;8.00;;;5.35;;
59830;SDS011;45711;50.108;13.712;2023-06-10T06:34:26;9.48;;;6.28;;
59830;SDS011;45711;50.108;13.712;2023-06-10T06:37:00;6.38;;;4.75;;
59830;SDS011;45711;50.108;13.712;2023-06-10T06:49:38;8.48;;;3.80;;
59830;SDS011;45711;50.108;13.712;2023-06-10T06:52:10;5.60;;;3.83;;
59830;SDS011;45711;50.108;13.712;2023-06-10T06:54:48;4.78;;;3.35;;
59830;SDS011;45711;50.108;13.712;2023-06-10T06:57:23;4.65;;;3.55;;
59830;SDS011;45711;50.108;13.712;2023-06-10T06:59:57;6.15;;;3.70;;
59830;SDS011;45711;50.108;13.712;2023-06-10T07:05:48;3.60;;;3.20;;
59830;SDS011;45711;50.108;13.712;2023-06-10T07:15:05;5.25;;;3.35;;
59830;SDS011;45711;50.108;13.712;2023-06-10T07:21:30;8.68;;;3.47;;
59830;SDS011;45711;50.108;13.712;2023-06-10T07:27:32;5.70;;;3.58;;
59830;SDS011;45711;50.108;13.712;2023-06-10T07:32:34;5.25;;;3.22;;
59830;SDS011;45711;50.108;13.712;2023-06-10T07:35:03;7.90;;;4.18;;
59830;SDS011;45711;50.108;13.712;2023-06-10T07:37:35;4.63;;;3.75;;
59830;SDS011;45711;50.108;13.712;2023-06-10T07:43:31;5.88;;;3.35;;
59830;SDS011;45711;50.108;13.712;2023-06-10T07:46:01;4.70;;;3.25;;
59830;SDS011;45711;50.108;13.712;2023-06-10T07:48:30;5.55;;;3.55;;
59830;SDS011;45711;50.108;13.712;2023-06-10T07:51:05;6.25;;;3.80;;
59830;SDS011;45711;50.108;13.712;2023-06-10T07:53:37;7.65;;;4.03;;
59830;SDS011;45711;50.108;13.712;2023-06-10T07:59:13;4.38;;;3.70;;
59830;SDS011;45711;50.108;13.712;2023-06-10T08:02:03;7.50;;;4.07;;
59830;SDS011;45711;50.108;13.712;2023-06-10T08:04:41;7.20;;;4.20;;
59830;SDS011;45711;50.108;13.712;2023-06-10T08:07:07;4.72;;;4.10;;
59830;SDS011;45711;50.108;13.712;2023-06-10T08:09:37;4.43;;;3.88;;
59830;SDS011;45711;50.108;13.712;2023-06-10T08:12:44;6.22;;;4.38;;
59830;SDS011;45711;50.108;13.712;2023-06-10T08:15:37;5.38;;;3.45;;
59830;SDS011;45711;50.108;13.712;2023-06-10T08:18:15;6.35;;;4.65;;
59830;SDS011;45711;50.108;13.712;2023-06-10T08:20:46;5.43;;;4.22;;
59830;SDS011;45711;50.108;13.712;2023-06-10T08:23:30;12.02;;;4.45;;
59830;SDS011;45711;50.108;13.712;2023-06-10T08:26:08;6.22;;;4.55;;
59830;SDS011;45711;50.108;13.712;2023-06-10T08:28:57;6.60;;;4.90;;
59830;SDS011;45711;50.108;13.712;2023-06-10T08:34:39;4.43;;;3.80;;
59830;SDS011;45711;50.108;13.712;2023-06-10T08:42:37;9.80;;;5.65;;
59830;SDS011;45711;50.108;13.712;2023-06-10T08:45:16;14.00;;;4.97;;
59830;SDS011;45711;50.108;13.712;2023-06-10T08:47:51;9.18;;;5.68;;
59830;SDS011;45711;50.108;13.712;2023-06-10T08:50:21;6.22;;;4.82;;
59830;SDS011;45711;50.108;13.712;2023-06-10T08:53:06;6.55;;;5.57;;
59830;SDS011;45711;50.108;13.712;2023-06-10T08:55:43;6.05;;;5.45;;
59830;SDS011;45711;50.108;13.712;2023-06-10T08:58:14;8.40;;;5.60;;
59830;SDS011;45711;50.108;13.712;2023-06-10T09:00:40;12.88;;;5.78;;
59830;SDS011;45711;50.108;13.712;2023-06-10T09:03:15;13.20;;;6.43;;
59830;SDS011;45711;50.108;13.712;2023-06-10T09:08:42;8.38;;;5.47;;
59830;SDS011;45711;50.108;13.712;2023-06-10T09:11:15;6.47;;;5.18;;
59830;SDS011;45711;50.108;13.712;2023-06-10T09:13:43;11.60;;;7.05;;
59830;SDS011;45711;50.108;13.712;2023-06-10T09:16:09;7.32;;;6.00;;
59830;SDS011;45711;50.108;13.712;2023-06-10T09:18:37;11.13;;;6.13;;
59830;SDS011;45711;50.108;13.712;2023-06-10T09:21:03;9.85;;;6.10;;
59830;SDS011;45711;50.108;13.712;2023-06-10T09:23:33;10.43;;;5.88;;
59830;SDS011;45711;50.108;13.712;2023-06-10T09:26:00;9.60;;;6.10;;
59830;SDS011;45711;50.108;13.712;2023-06-10T09:28:28;10.55;;;6.47;;
59830;SDS011;45711;50.108;13.712;2023-06-10T09:31:04;12.77;;;6.30;;
59830;SDS011;45711;50.108;13.712;2023-06-10T09:33:32;10.23;;;5.75;;
59830;SDS011;45711;50.108;13.712;2023-06-10T09:36:04;7.63;;;4.80;;
59830;SDS011;45711;50.108;13.712;2023-06-10T09:38:31;11.07;;;5.63;;
59830;SDS011;45711;50.108;13.712;2023-06-10T09:41:04;8.60;;;5.22;;
59830;SDS011;45711;50.108;13.712;2023-06-10T09:43:43;12.07;;;5.38;;
59830;SDS011;45711;50.108;13.712;2023-06-10T09:46:14;12.38;;;5.32;;
59830;SDS011;45711;50.108;13.712;2023-06-10T09:48:43;13.68;;;5.05;;
59830;SDS011;45711;50.108;13.712;2023-06-10T09:51:15;8.30;;;5.40;;
59830;SDS011;45711;50.108;13.712;2023-06-10T09:53:57;9.13;;;5.38;;
59830;SDS011;45711;50.108;13.712;2023-06-10T09:59:39;6.63;;;5.25;;
59830;SDS011;45711;50.108;13.712;2023-06-10T10:05:46;9.30;;;5.93;;
59830;SDS011;45711;50.108;13.712;2023-06-10T10:08:24;8.63;;;4.95;;
59830;SDS011;45711;50.108;13.712;2023-06-10T10:10:53;7.38;;;5.07;;
59830;SDS011;45711;50.108;13.712;2023-06-10T10:13:29;11.20;;;5.65;;
59830;SDS011;45711;50.108;13.712;2023-06-10T10:16:35;8.90;;;5.30;;
59830;SDS011;45711;50.108;13.712;2023-06-10T10:19:11;8.70;;;4.90;;
59830;SDS011;45711;50.108;13.712;2023-06-10T10:21:46;5.75;;;4.70;;
59830;SDS011;45711;50.108;13.712;2023-06-10T10:24:21;10.35;;;5.05;;
59830;SDS011;45711;50.108;13.712;2023-06-10T10:27:20;9.10;;;5.20;;
59830;SDS011;45711;50.108;13.712;2023-06-10T10:32:37;7.30;;;5.10;;
59830;SDS011;45711;50.108;13.712;2023-06-10T10:35:09;8.13;;;4.90;;
59830;SDS011;45711;50.108;13.712;2023-06-10T10:37:42;11.07;;;5.30;;
59830;SDS011;45711;50.108;13.712;2023-06-10T10:40:13;9.00;;;5.50;;
59830;SDS011;45711;50.108;13.712;2023-06-10T10:42:43;5.47;;;4.93;;
59830;SDS011;45711;50.108;13.712;2023-06-10T10:45:14;18.70;;;5.35;;
59830;SDS011;45711;50.108;13.712;2023-06-10T10:47:40;10.10;;;5.47;;
59830;SDS011;45711;50.108;13.712;2023-06-10T10:50:12;8.07;;;6.07;;
59830;SDS011;45711;50.108;13.712;2023-06-10T10:52:52;6.90;;;5.60;;
59830;SDS011;45711;50.108;13.712;2023-06-10T10:55:19;10.13;;;5.53;;
59830;SDS011;45711;50.108;13.712;2023-06-10T10:58:23;8.32;;;5.78;;
59830;SDS011;45711;50.108;13.712;2023-06-10T11:01:01;12.02;;;6.18;;
59830;SDS011;45711;50.108;13.712;2023-06-10T11:03:39;8.30;;;5.78;;
59830;SDS011;45711;50.108;13.712;2023-06-10T11:06:15;10.45;;;5.50;;
59830;SDS011;45711;50.108;13.712;2023-06-10T11:08:49;6.40;;;4.82;;
59830;SDS011;45711;50.108;13.712;2023-06-10T11:11:23;10.30;;;5.38;;
59830;SDS011;45711;50.108;13.712;2023-06-10T11:13:59;34.28;;;5.35;;
59830;SDS011;45711;50.108;13.712;2023-06-10T11:16:48;7.78;;;5.55;;
59830;SDS011;45711;50.108;13.712;2023-06-10T11:22:05;9.20;;;5.22;;
59830;SDS011;45711;50.108;13.712;2023-06-10T11:24:47;11.75;;;5.35;;
59830;SDS011;45711;50.108;13.712;2023-06-10T11:27:21;9.90;;;5.75;;
59830;SDS011;45711;50.108;13.712;2023-06-10T11:30:26;12.88;;;5.82;;
59830;SDS011;45711;50.108;13.712;2023-06-10T11:35:57;7.82;;;5.57;;
59830;SDS011;45711;50.108;13.712;2023-06-10T11:38:39;11.82;;;5.93;;
59830;SDS011;45711;50.108;13.712;2023-06-10T11:44:28;8.82;;;5.38;;
59830;SDS011;45711;50.108;13.712;2023-06-10T11:47:07;7.93;;;5.20;;
59830;SDS011;45711;50.108;13.712;2023-06-10T11:49:59;7.47;;;5.32;;
59830;SDS011;45711;50.108;13.712;2023-06-10T12:02:46;10.02;;;5.03;;
59830;SDS011;45711;50.108;13.712;2023-06-10T14:13:04;14.57;;;4.50;;
59830;SDS011;45711;50.108;13.712;2023-06-10T14:15:41;13.43;;;4.38;;
59830;SDS011;45711;50.108;13.712;2023-06-10T14:18:09;17.17;;;4.93;;
59830;SDS011;45711;50.108;13.712;2023-06-10T14:20:42;11.00;;;4.82;;
59830;SDS011;45711;50.108;13.712;2023-06-10T14:23:16;11.15;;;4.90;;
59830;SDS011;45711;50.108;13.712;2023-06-10T14:32:23;6.72;;;4.38;;
59830;SDS011;45711;50.108;13.712;2023-06-10T14:34:59;6.95;;;4.20;;
59830;SDS011;45711;50.108;13.712;2023-06-10T14:37:28;24.10;;;5.57;;
59830;SDS011;45711;50.108;13.712;2023-06-10T14:40:02;10.68;;;4.53;;
59830;SDS011;45711;50.108;13.712;2023-06-10T14:46:10;8.35;;;4.40;;
59830;SDS011;45711;50.108;13.712;2023-06-10T14:55:43;8.25;;;4.70;;
59830;SDS011;45711;50.108;13.712;2023-06-10T14:58:20;7.35;;;4.60;;
59830;SDS011;45711;50.108;13.712;2023-06-10T15:05:27;7.63;;;4.45;;
59830;SDS011;45711;50.108;13.712;2023-06-10T15:08:00;9.82;;;4.50;;
59830;SDS011;45711;50.108;13.712;2023-06-10T15:10:44;7.10;;;4.70;;
59830;SDS011;45711;50.108;13.712;2023-06-10T15:13:47;9.38;;;4.63;;
59830;SDS011;45711;50.108;13.712;2023-06-10T15:16:13;9.13;;;4.82;;
59830;SDS011;45711;50.108;13.712;2023-06-10T15:19:01;15.65;;;4.72;;
59830;SDS011;45711;50.108;13.712;2023-06-10T15:21:39;9.55;;;4.68;;
59830;SDS011;45711;50.108;13.712;2023-06-10T16:38:40;8.20;;;5.05;;
59830;SDS011;45711;50.108;13.712;2023-06-10T16:41:20;8.37;;;4.23;;
59830;SDS011;45711;50.108;13.712;2023-06-10T16:43:52;6.63;;;4.57;;
59830;SDS011;45711;50.108;13.712;2023-06-10T16:46:27;13.23;;;4.78;;
59830;SDS011;45711;50.108;13.712;2023-06-10T16:48:58;11.85;;;5.25;;
59830;SDS011;45711;50.108;13.712;2023-06-10T16:51:34;8.93;;;4.68;;
59830;SDS011;45711;50.108;13.712;2023-06-10T16:54:14;16.67;;;5.35;;
59830;SDS011;45711;50.108;13.712;2023-06-10T16:57:22;7.47;;;5.40;;
59830;SDS011;45711;50.108;13.712;2023-06-10T17:00:03;11.63;;;6.20;;
59830;SDS011;45711;50.108;13.712;2023-06-10T17:02:41;10.35;;;5.20;;
59830;SDS011;45711;50.108;13.712;2023-06-10T17:05:18;6.65;;;5.05;;
59830;SDS011;45711;50.108;13.712;2023-06-10T17:08:01;15.07;;;5.82;;
59830;SDS011;45711;50.108;13.712;2023-06-10T17:10:35;9.50;;;4.90;;
59830;SDS011;45711;50.108;13.712;2023-06-10T17:13:07;10.95;;;5.03;;
59830;SDS011;45711;50.108;13.712;2023-06-10T17:15:42;10.32;;;5.30;;
59830;SDS011;45711;50.108;13.712;2023-06-10T17:18:10;8.38;;;4.90;;
59830;SDS011;45711;50.108;13.712;2023-06-10T17:20:43;9.68;;;4.85;;
59830;SDS011;45711;50.108;13.712;2023-06-10T17:32:09;10.55;;;6.00;;
59830;SDS011;45711;50.108;13.712;2023-06-10T17:35:26;9.45;;;4.93;;
59830;SDS011;45711;50.108;13.712;2023-06-10T17:37:56;11.98;;;4.90;;
59830;SDS011;45711;50.108;13.712;2023-06-10T17:40:30;12.68;;;4.85;;
59830;SDS011;45711;50.108;13.712;2023-06-10T17:43:06;7.22;;;4.63;;
59830;SDS011;45711;50.108;13.712;2023-06-10T17:45:36;11.68;;;4.72;;
59830;SDS011;45711;50.108;13.712;2023-06-10T17:48:14;6.65;;;4.63;;
59830;SDS011;45711;50.108;13.712;2023-06-10T17:50:43;7.45;;;4.70;;
59830;SDS011;45711;50.108;13.712;2023-06-10T17:53:13;9.45;;;4.60;;
59830;SDS011;45711;50.108;13.712;2023-06-10T17:55:44;8.18;;;4.70;;
59830;SDS011;45711;50.108;13.712;2023-06-10T17:58:11;7.03;;;4.53;;
59830;SDS011;45711;50.108;13.712;2023-06-10T18:04:49;9.15;;;4.30;;
59830;SDS011;45711;50.108;13.712;2023-06-10T18:52:47;13.23;;;6.22;;
